sensor_id;sensor_type;location;lat;lon;timestamp;pressure;altitude;pressure_sealevel;temperature;humidity
70323;BME280;57735;56.264;43.898;2023-03-19T00:02:11;102493.06;;;-2.94;57.21
70323;BME280;57735;56.264;43.898;2023-03-19T00:04:42;102483.50;;;-2.93;57.34
70323;BME280;57735;56.264;43.898;2023-03-19T00:07:13;102486.97;;;-2.94;57.71
70323;BME280;57735;56.264;43.898;2023-03-19T00:09:44;102487.88;;;-2.97;57.36
70323;BME280;57735;56.264;43.898;2023-03-19T00:12:17;102497.44;;;-2.97;57.41
70323;BME280;57735;56.264;43.898;2023-03-19T00:14:48;102494.84;;;-2.97;57.40
70323;BME280;57735;56.264;43.898;2023-03-19T00:17:18;102487.03;;;-3.00;57.63
70323;BME280;57735;56.264;43.898;2023-03-19T00:19:49;102487.09;;;-3.03;58.19
70323;BME280;57735;56.264;43.898;2023-03-19T00:22:19;102490.50;;;-3.00;57.78
70323;BME280;57735;56.264;43.898;2023-03-19T00:24:50;102489.66;;;-3.00;57.49
70323;BME280;57735;56.264;43.898;2023-03-19T00:27:21;102485.34;;;-3.03;57.72
70323;BME280;57735;56.264;43.898;2023-03-19T00:29:54;102487.97;;;-3.06;57.43
70323;BME280;57735;56.264;43.898;2023-03-19T00:32:24;102490.59;;;-3.07;57.34
70323;BME280;57735;56.264;43.898;2023-03-19T00:34:55;102490.63;;;-3.09;57.54
70323;BME280;57735;56.264;43.898;2023-03-19T00:37:26;102486.31;;;-3.13;57.65
70323;BME280;57735;56.264;43.898;2023-03-19T00:39:57;102486.34;;;-3.18;57.78
70323;BME280;57735;56.264;43.898;2023-03-19T00:42:31;102487.28;;;-3.22;57.77
70323;BME280;57735;56.264;43.898;2023-03-19T00:45:01;102483.78;;;-3.22;58.30
70323;BME280;57735;56.264;43.898;2023-03-19T00:47:32;102494.25;;;-3.25;57.96
70323;BME280;57735;56.264;43.898;2023-03-19T00:50:03;102483.84;;;-3.28;57.88
70323;BME280;57735;56.264;43.898;2023-03-19T00:52:36;102487.34;;;-3.32;58.32
70323;BME280;57735;56.264;43.898;2023-03-19T00:55:07;102481.31;;;-3.36;58.13
70323;BME280;57735;56.264;43.898;2023-03-19T00:57:37;102475.25;;;-3.39;58.20
70323;BME280;57735;56.264;43.898;2023-03-19T01:00:08;102479.63;;;-3.43;58.61
70323;BME280;57735;56.264;43.898;2023-03-19T01:02:39;102476.19;;;-3.46;58.97
70323;BME280;57735;56.264;43.898;2023-03-19T01:05:10;102484.00;;;-3.46;58.60
70323;BME280;57735;56.264;43.898;2023-03-19T01:07:41;102471.00;;;-3.49;58.77
70323;BME280;57735;56.264;43.898;2023-03-19T01:10:12;102475.34;;;-3.50;58.80
70323;BME280;57735;56.264;43.898;2023-03-19T01:12:44;102474.50;;;-3.52;58.77
70323;BME280;57735;56.264;43.898;2023-03-19T01:15:15;102468.44;;;-3.54;58.79
70323;BME280;57735;56.264;43.898;2023-03-19T01:17:46;102467.59;;;-3.59;58.81
70323;BME280;57735;56.264;43.898;2023-03-19T01:20:17;102465.03;;;-3.62;58.70
70323;BME280;57735;56.264;43.898;2023-03-19T01:22:48;102461.56;;;-3.67;58.99
70323;BME280;57735;56.264;43.898;2023-03-19T01:25:18;102460.75;;;-3.71;59.34
70323;BME280;57735;56.264;43.898;2023-03-19T01:27:49;102460.81;;;-3.77;59.37
70323;BME280;57735;56.264;43.898;2023-03-19T01:30:20;102461.69;;;-3.82;59.44
70323;BME280;57735;56.264;43.898;2023-03-19T01:32:51;102464.38;;;-3.87;59.77
70323;BME280;57735;56.264;43.898;2023-03-19T01:35:21;102467.84;;;-3.88;59.94
70323;BME280;57735;56.264;43.898;2023-03-19T01:37:55;102458.31;;;-3.92;59.80
70323;BME280;57735;56.264;43.898;2023-03-19T01:40:25;102461.81;;;-3.96;59.98
70323;BME280;57735;56.264;43.898;2023-03-19T01:42:57;102462.69;;;-3.99;60.17
70323;BME280;57735;56.264;43.898;2023-03-19T01:45:42;102457.50;;;-4.02;60.58
70323;BME280;57735;56.264;43.898;2023-03-19T01:48:23;102454.00;;;-4.01;60.05
70323;BME280;57735;56.264;43.898;2023-03-19T01:50:55;102454.94;;;-4.05;60.25
70323;BME280;57735;56.264;43.898;2023-03-19T01:53:27;102461.00;;;-4.06;60.39
70323;BME280;57735;56.264;43.898;2023-03-19T01:56:02;102454.94;;;-4.06;60.17
70323;BME280;57735;56.264;43.898;2023-03-19T01:58:33;102454.94;;;-4.08;60.52
70323;BME280;57735;56.264;43.898;2023-03-19T02:01:03;102445.41;;;-4.09;60.75
70323;BME280;57735;56.264;43.898;2023-03-19T02:03:34;102445.41;;;-4.10;60.77
70323;BME280;57735;56.264;43.898;2023-03-19T02:06:07;102445.41;;;-4.12;61.12
70323;BME280;57735;56.264;43.898;2023-03-19T02:08:40;102448.91;;;-4.13;61.00
70323;BME280;57735;56.264;43.898;2023-03-19T02:11:10;102445.44;;;-4.16;60.89
70323;BME280;57735;56.264;43.898;2023-03-19T02:13:41;102442.00;;;-4.20;61.07
70323;BME280;57735;56.264;43.898;2023-03-19T02:16:15;102442.91;;;-4.27;61.19
70323;BME280;57735;56.264;43.898;2023-03-19T02:18:45;102436.84;;;-4.29;61.04
70323;BME280;57735;56.264;43.898;2023-03-19T02:21:16;102442.06;;;-4.32;61.13
70323;BME280;57735;56.264;43.898;2023-03-19T02:26:25;102445.59;;;-4.36;61.47
70323;BME280;57735;56.264;43.898;2023-03-19T02:28:57;102430.84;;;-4.39;61.44
70323;BME280;57735;56.264;43.898;2023-03-19T02:31:28;102435.19;;;-4.41;61.44
70323;BME280;57735;56.264;43.898;2023-03-19T02:34:03;102434.31;;;-4.41;61.31
70323;BME280;57735;56.264;43.898;2023-03-19T02:36:40;102431.72;;;-4.41;61.37
70323;BME280;57735;56.264;43.898;2023-03-19T02:39:14;102433.47;;;-4.45;61.36
70323;BME280;57735;56.264;43.898;2023-03-19T02:41:48;102432.59;;;-4.47;61.99
70323;BME280;57735;56.264;43.898;2023-03-19T02:44:21;102423.06;;;-4.46;61.93
70323;BME280;57735;56.264;43.898;2023-03-19T02:46:51;102426.53;;;-4.46;61.93
70323;BME280;57735;56.264;43.898;2023-03-19T02:49:22;102423.91;;;-4.46;61.93
70323;BME280;57735;56.264;43.898;2023-03-19T02:51:53;102417.00;;;-4.48;61.68
70323;BME280;57735;56.264;43.898;2023-03-19T02:54:24;102421.34;;;-4.50;61.91
70323;BME280;57735;56.264;43.898;2023-03-19T02:56:54;102423.06;;;-4.51;61.94
70323;BME280;57735;56.264;43.898;2023-03-19T02:59:25;102418.78;;;-4.53;61.70
70323;BME280;57735;56.264;43.898;2023-03-19T03:01:56;102423.13;;;-4.55;61.69
70323;BME280;57735;56.264;43.898;2023-03-19T03:04:26;102419.66;;;-4.58;61.88
70323;BME280;57735;56.264;43.898;2023-03-19T03:06:58;102415.31;;;-4.59;62.17
70323;BME280;57735;56.264;43.898;2023-03-19T03:09:31;102421.41;;;-4.61;62.00
70323;BME280;57735;56.264;43.898;2023-03-19T03:12:02;102413.59;;;-4.63;62.17
70323;BME280;57735;56.264;43.898;2023-03-19T03:14:33;102415.34;;;-4.63;62.07
70323;BME280;57735;56.264;43.898;2023-03-19T03:17:04;102413.59;;;-4.63;62.57
70323;BME280;57735;56.264;43.898;2023-03-19T03:19:34;102413.59;;;-4.61;62.25
70323;BME280;57735;56.264;43.898;2023-03-19T03:22:07;102414.47;;;-4.62;62.23
70323;BME280;57735;56.264;43.898;2023-03-19T03:24:38;102410.13;;;-4.63;62.36
70323;BME280;57735;56.264;43.898;2023-03-19T03:27:08;102411.00;;;-4.61;62.62
70323;BME280;57735;56.264;43.898;2023-03-19T03:29:39;102411.84;;;-4.61;61.92
70323;BME280;57735;56.264;43.898;2023-03-19T03:32:10;102404.06;;;-4.61;61.93
70323;BME280;57735;56.264;43.898;2023-03-19T03:34:43;102394.53;;;-4.62;62.22
70323;BME280;57735;56.264;43.898;2023-03-19T03:37:15;102396.25;;;-4.61;62.06
70323;BME280;57735;56.264;43.898;2023-03-19T03:39:46;102390.16;;;-4.58;61.78
70323;BME280;57735;56.264;43.898;2023-03-19T03:42:17;102390.16;;;-4.55;62.04
70323;BME280;57735;56.264;43.898;2023-03-19T03:44:48;102376.28;;;-4.54;62.03
70323;BME280;57735;56.264;43.898;2023-03-19T03:47:18;102386.66;;;-4.51;61.99
70323;BME280;57735;56.264;43.898;2023-03-19T03:49:49;102384.03;;;-4.48;62.04
70323;BME280;57735;56.264;43.898;2023-03-19T03:52:19;102382.28;;;-4.44;61.67
70323;BME280;57735;56.264;43.898;2023-03-19T03:54:50;102382.25;;;-4.38;61.81
70323;BME280;57735;56.264;43.898;2023-03-19T03:57:20;102380.44;;;-4.32;61.13
70323;BME280;57735;56.264;43.898;2023-03-19T03:59:51;102379.56;;;-4.29;61.34
70323;BME280;57735;56.264;43.898;2023-03-19T04:02:22;102376.09;;;-4.27;61.20
70323;BME280;57735;56.264;43.898;2023-03-19T04:04:52;102376.94;;;-4.23;61.12
70323;BME280;57735;56.264;43.898;2023-03-19T04:07:23;102362.16;;;-4.19;60.94
70323;BME280;57735;56.264;43.898;2023-03-19T04:09:55;102368.19;;;-4.16;60.92
70323;BME280;57735;56.264;43.898;2023-03-19T04:12:26;102368.19;;;-4.14;60.86
70323;BME280;57735;56.264;43.898;2023-03-19T04:14:57;102368.16;;;-4.13;60.75
70323;BME280;57735;56.264;43.898;2023-03-19T04:17:27;102359.47;;;-4.09;60.52
70323;BME280;57735;56.264;43.898;2023-03-19T04:19:58;102358.56;;;-4.05;60.70
70323;BME280;57735;56.264;43.898;2023-03-19T04:22:29;102355.09;;;-4.04;60.81
70323;BME280;57735;56.264;43.898;2023-03-19T04:24:59;102358.50;;;-4.00;60.16
70323;BME280;57735;56.264;43.898;2023-03-19T04:27:30;102349.81;;;-3.98;60.33
70323;BME280;57735;56.264;43.898;2023-03-19T04:30:00;102341.97;;;-3.95;59.86
70323;BME280;57735;56.264;43.898;2023-03-19T04:32:31;102351.53;;;-3.95;60.07
70323;BME280;57735;56.264;43.898;2023-03-19T04:35:04;102336.78;;;-3.95;59.74
70323;BME280;57735;56.264;43.898;2023-03-19T04:37:35;102337.63;;;-3.93;59.78
70323;BME280;57735;56.264;43.898;2023-03-19T04:40:06;102339.34;;;-3.89;59.52
70323;BME280;57735;56.264;43.898;2023-03-19T04:42:36;102339.25;;;-3.84;59.83
70323;BME280;57735;56.264;43.898;2023-03-19T04:45:07;102345.31;;;-3.82;59.90
70323;BME280;57735;56.264;43.898;2023-03-19T04:47:38;102347.88;;;-3.74;59.35
70323;BME280;57735;56.264;43.898;2023-03-19T04:50:09;102346.97;;;-3.69;59.35
70323;BME280;57735;56.264;43.898;2023-03-19T04:52:42;102339.97;;;-3.65;59.36
70323;BME280;57735;56.264;43.898;2023-03-19T04:55:15;102341.63;;;-3.58;59.09
70323;BME280;57735;56.264;43.898;2023-03-19T04:57:48;102341.59;;;-3.55;59.20
70323;BME280;57735;56.264;43.898;2023-03-19T05:00:22;102339.78;;;-3.48;58.43
70323;BME280;57735;56.264;43.898;2023-03-19T05:02:52;102344.09;;;-3.44;58.91
70323;BME280;57735;56.264;43.898;2023-03-19T05:05:23;102337.97;;;-3.39;58.19
70323;BME280;57735;56.264;43.898;2023-03-19T05:07:55;102339.69;;;-3.39;57.68
70323;BME280;57735;56.264;43.898;2023-03-19T05:10:27;102337.00;;;-3.35;57.95
70323;BME280;57735;56.264;43.898;2023-03-19T05:12:57;102335.22;;;-3.30;57.55
70323;BME280;57735;56.264;43.898;2023-03-19T05:15:28;102341.25;;;-3.23;57.42
70323;BME280;57735;56.264;43.898;2023-03-19T05:17:59;102338.59;;;-3.19;56.79
70323;BME280;57735;56.264;43.898;2023-03-19T05:20:29;102334.16;;;-3.13;57.29
70323;BME280;57735;56.264;43.898;2023-03-19T05:23:00;102334.97;;;-3.07;57.57
70323;BME280;57735;56.264;43.898;2023-03-19T05:25:32;102335.78;;;-3.03;56.87
70323;BME280;57735;56.264;43.898;2023-03-19T05:28:04;102330.56;;;-3.03;56.69
70323;BME280;57735;56.264;43.898;2023-03-19T05:30:34;102327.13;;;-3.07;56.59
70323;BME280;57735;56.264;43.898;2023-03-19T05:33:05;102321.91;;;-3.05;56.46
70323;BME280;57735;56.264;43.898;2023-03-19T05:35:36;102318.41;;;-3.04;56.51
70323;BME280;57735;56.264;43.898;2023-03-19T05:38:07;102325.38;;;-3.03;56.70
70323;BME280;57735;56.264;43.898;2023-03-19T05:40:41;102327.09;;;-3.02;56.10
70323;BME280;57735;56.264;43.898;2023-03-19T05:43:11;102321.81;;;-3.01;55.87
70323;BME280;57735;56.264;43.898;2023-03-19T05:45:42;102314.84;;;-2.99;56.10
70323;BME280;57735;56.264;43.898;2023-03-19T05:48:12;102312.19;;;-2.96;55.82
70323;BME280;57735;56.264;43.898;2023-03-19T05:50:43;102314.78;;;-2.94;56.01
70323;BME280;57735;56.264;43.898;2023-03-19T05:53:14;102304.31;;;-2.91;55.66
70323;BME280;57735;56.264;43.898;2023-03-19T05:55:44;102302.56;;;-2.89;55.39
70323;BME280;57735;56.264;43.898;2023-03-19T05:58:15;102301.63;;;-2.85;54.83
70323;BME280;57735;56.264;43.898;2023-03-19T06:00:46;102294.59;;;-2.82;54.71
70323;BME280;57735;56.264;43.898;2023-03-19T06:03:17;102284.09;;;-2.75;54.71
70323;BME280;57735;56.264;43.898;2023-03-19T06:05:50;102287.47;;;-2.69;55.13
70323;BME280;57735;56.264;43.898;2023-03-19T06:08:21;102283.00;;;-2.62;54.44
70323;BME280;57735;56.264;43.898;2023-03-19T06:10:52;102286.41;;;-2.56;54.39
70323;BME280;57735;56.264;43.898;2023-03-19T06:13:23;102279.25;;;-2.44;54.64
70323;BME280;57735;56.264;43.898;2023-03-19T06:15:53;102276.59;;;-2.40;54.06
70323;BME280;57735;56.264;43.898;2023-03-19T06:18:24;102272.97;;;-2.33;53.81
70323;BME280;57735;56.264;43.898;2023-03-19T06:20:54;102267.69;;;-2.28;53.51
70323;BME280;57735;56.264;43.898;2023-03-19T06:23:25;102265.00;;;-2.24;53.31
70323;BME280;57735;56.264;43.898;2023-03-19T06:25:55;102274.59;;;-2.24;53.09
70323;BME280;57735;56.264;43.898;2023-03-19T06:28:26;102271.78;;;-2.14;53.59
70323;BME280;57735;56.264;43.898;2023-03-19T06:30:57;102263.78;;;-2.04;52.82
70323;BME280;57735;56.264;43.898;2023-03-19T06:33:27;102271.44;;;-1.95;53.13
70323;BME280;57735;56.264;43.898;2023-03-19T06:36:01;102260.81;;;-1.85;52.77
70323;BME280;57735;56.264;43.898;2023-03-19T06:38:31;102258.09;;;-1.80;52.37
70323;BME280;57735;56.264;43.898;2023-03-19T06:41:02;102250.19;;;-1.76;52.14
70323;BME280;57735;56.264;43.898;2023-03-19T06:43:33;102248.44;;;-1.77;51.64
70323;BME280;57735;56.264;43.898;2023-03-19T06:46:06;102255.28;;;-1.68;51.58
70323;BME280;57735;56.264;43.898;2023-03-19T06:48:37;102237.75;;;-1.64;51.41
70323;BME280;57735;56.264;43.898;2023-03-19T06:51:10;102239.38;;;-1.57;51.29
70323;BME280;57735;56.264;43.898;2023-03-19T06:53:40;102227.88;;;-1.50;51.26
70323;BME280;57735;56.264;43.898;2023-03-19T06:56:11;102231.13;;;-1.39;51.51
70323;BME280;57735;56.264;43.898;2023-03-19T06:58:44;102235.41;;;-1.35;50.54
70323;BME280;57735;56.264;43.898;2023-03-19T07:01:14;102227.41;;;-1.27;50.62
70323;BME280;57735;56.264;43.898;2023-03-19T07:03:45;102227.13;;;-1.15;51.39
70323;BME280;57735;56.264;43.898;2023-03-19T07:06:16;102228.66;;;-1.05;50.55
70323;BME280;57735;56.264;43.898;2023-03-19T07:08:47;102229.34;;;-0.98;50.18
70323;BME280;57735;56.264;43.898;2023-03-19T07:11:17;102222.28;;;-0.93;49.81
70323;BME280;57735;56.264;43.898;2023-03-19T07:13:48;102216.75;;;-0.81;49.95
70323;BME280;57735;56.264;43.898;2023-03-19T07:16:18;102213.06;;;-0.73;49.86
70323;BME280;57735;56.264;43.898;2023-03-19T07:18:49;102213.69;;;-0.63;49.41
70323;BME280;57735;56.264;43.898;2023-03-19T07:21:20;102200.31;;;-0.51;49.60
70323;BME280;57735;56.264;43.898;2023-03-19T07:23:50;102206.97;;;-0.38;49.12
70323;BME280;57735;56.264;43.898;2023-03-19T07:26:21;102191.16;;;-0.34;48.16
70323;BME280;57735;56.264;43.898;2023-03-19T07:28:55;102188.66;;;-0.39;48.24
70323;BME280;57735;56.264;43.898;2023-03-19T07:31:25;102194.50;;;-0.29;48.53
70323;BME280;57735;56.264;43.898;2023-03-19T07:33:56;102195.13;;;-0.20;48.76
70323;BME280;57735;56.264;43.898;2023-03-19T07:36:26;102196.75;;;-0.16;47.35
70323;BME280;57735;56.264;43.898;2023-03-19T07:38:57;102193.28;;;-0.16;47.33
70323;BME280;57735;56.264;43.898;2023-03-19T07:41:28;102196.56;;;-0.08;47.02
70323;BME280;57735;56.264;43.898;2023-03-19T07:43:58;102194.66;;;-0.02;46.67
70323;BME280;57735;56.264;43.898;2023-03-19T07:46:29;102184.91;;;0.02;47.18
70323;BME280;57735;56.264;43.898;2023-03-19T07:48:59;102191.84;;;0.05;46.26
70323;BME280;57735;56.264;43.898;2023-03-19T07:51:30;102186.41;;;0.12;45.87
70323;BME280;57735;56.264;43.898;2023-03-19T07:54:00;102183.81;;;0.11;45.77
70323;BME280;57735;56.264;43.898;2023-03-19T07:56:31;102175.88;;;0.14;45.74
70323;BME280;57735;56.264;43.898;2023-03-19T07:59:02;102177.56;;;0.16;46.08
70323;BME280;57735;56.264;43.898;2023-03-19T08:01:34;102179.13;;;0.22;45.83
70323;BME280;57735;56.264;43.898;2023-03-19T08:04:05;102177.97;;;0.32;45.76
70323;BME280;57735;56.264;43.898;2023-03-19T08:06:36;102171.59;;;0.41;45.83
70323;BME280;57735;56.264;43.898;2023-03-19T08:09:07;102177.66;;;0.43;44.69
70323;BME280;57735;56.264;43.898;2023-03-19T08:11:38;102169.81;;;0.41;44.54
70323;BME280;57735;56.264;43.898;2023-03-19T08:14:09;102161.91;;;0.43;44.92
70323;BME280;57735;56.264;43.898;2023-03-19T08:16:42;102155.63;;;0.48;44.70
70323;BME280;57735;56.264;43.898;2023-03-19T08:19:12;102154.66;;;0.51;44.25
70323;BME280;57735;56.264;43.898;2023-03-19T08:21:46;102152.03;;;0.51;44.30
70323;BME280;57735;56.264;43.898;2023-03-19T08:24:19;102149.25;;;0.57;44.41
70323;BME280;57735;56.264;43.898;2023-03-19T08:26:49;102147.13;;;0.68;44.89
70323;BME280;57735;56.264;43.898;2023-03-19T08:29:20;102139.00;;;0.77;44.20
70323;BME280;57735;56.264;43.898;2023-03-19T08:31:51;102130.81;;;0.86;43.65
70323;BME280;57735;56.264;43.898;2023-03-19T08:34:22;102126.38;;;0.88;43.15
70323;BME280;57735;56.264;43.898;2023-03-19T08:36:54;102126.97;;;0.98;43.77
70323;BME280;57735;56.264;43.898;2023-03-19T08:39:25;102124.06;;;1.05;43.75
70323;BME280;57735;56.264;43.898;2023-03-19T08:41:55;102116.84;;;1.12;43.36
70323;BME280;57735;56.264;43.898;2023-03-19T08:44:26;102122.59;;;1.23;43.49
70323;BME280;57735;56.264;43.898;2023-03-19T08:46:57;102106.59;;;1.31;43.73
70323;BME280;57735;56.264;43.898;2023-03-19T08:49:28;102107.31;;;1.34;43.49
70323;BME280;57735;56.264;43.898;2023-03-19T08:51:58;102109.84;;;1.37;42.88
70323;BME280;57735;56.264;43.898;2023-03-19T08:54:29;102092.06;;;1.46;43.55
70323;BME280;57735;56.264;43.898;2023-03-19T08:57:02;102091.91;;;1.50;43.09
70323;BME280;57735;56.264;43.898;2023-03-19T08:59:32;102092.59;;;1.55;43.15
70323;BME280;57735;56.264;43.898;2023-03-19T09:02:03;102083.75;;;1.58;43.28
70323;BME280;57735;56.264;43.898;2023-03-19T09:04:34;102084.66;;;1.57;43.14
70323;BME280;57735;56.264;43.898;2023-03-19T09:07:10;102078.44;;;1.59;43.43
70323;BME280;57735;56.264;43.898;2023-03-19T09:09:45;102065.81;;;1.69;43.31
70323;BME280;57735;56.264;43.898;2023-03-19T09:12:16;102064.78;;;1.73;44.15
70323;BME280;57735;56.264;43.898;2023-03-19T09:14:46;102065.53;;;1.77;43.50
70323;BME280;57735;56.264;43.898;2023-03-19T09:17:17;102065.38;;;1.81;43.52
70323;BME280;57735;56.264;43.898;2023-03-19T09:19:47;102054.56;;;1.89;43.78
70323;BME280;57735;56.264;43.898;2023-03-19T09:22:18;102055.16;;;1.97;43.49
70323;BME280;57735;56.264;43.898;2023-03-19T09:24:48;102051.25;;;2.07;43.62
70323;BME280;57735;56.264;43.898;2023-03-19T09:27:19;102044.97;;;2.11;43.49
70323;BME280;57735;56.264;43.898;2023-03-19T09:29:50;102048.28;;;2.16;42.96
70323;BME280;57735;56.264;43.898;2023-03-19T09:32:20;102041.59;;;2.07;43.29
70323;BME280;57735;56.264;43.898;2023-03-19T09:34:53;102036.31;;;2.07;43.62
70323;BME280;57735;56.264;43.898;2023-03-19T09:37:24;102037.19;;;2.08;43.53
70323;BME280;57735;56.264;43.898;2023-03-19T09:39:54;102029.25;;;2.09;43.85
70323;BME280;57735;56.264;43.898;2023-03-19T09:45:15;102020.00;;;2.21;43.59
70323;BME280;57735;56.264;43.898;2023-03-19T09:47:48;102014.84;;;2.18;43.60
70323;BME280;57735;56.264;43.898;2023-03-19T09:50:22;102009.38;;;2.24;43.61
70323;BME280;57735;56.264;43.898;2023-03-19T09:55:46;101998.34;;;2.36;44.10
70323;BME280;57735;56.264;43.898;2023-03-19T09:58:18;101992.38;;;2.33;43.43
70323;BME280;57735;56.264;43.898;2023-03-19T10:00:50;102003.94;;;2.29;43.92
70323;BME280;57735;56.264;43.898;2023-03-19T10:17:22;101980.66;;;2.40;44.11
70323;BME280;57735;56.264;43.898;2023-03-19T10:22:39;101970.09;;;2.41;43.99
70323;BME280;57735;56.264;43.898;2023-03-19T10:25:12;101964.69;;;2.44;43.30
70323;BME280;57735;56.264;43.898;2023-03-19T10:27:49;101964.47;;;2.51;44.21
70323;BME280;57735;56.264;43.898;2023-03-19T10:30:30;101965.22;;;2.53;44.07
70323;BME280;57735;56.264;43.898;2023-03-19T10:33:24;101961.50;;;2.58;44.14
70323;BME280;57735;56.264;43.898;2023-03-19T10:35:56;101959.66;;;2.60;44.36
70323;BME280;57735;56.264;43.898;2023-03-19T10:38:27;101953.28;;;2.66;44.49
70323;BME280;57735;56.264;43.898;2023-03-19T10:41:15;101949.34;;;2.76;44.28
70323;BME280;57735;56.264;43.898;2023-03-19T10:43:51;101942.97;;;2.82;44.33
70323;BME280;57735;56.264;43.898;2023-03-19T10:46:24;101942.09;;;2.81;44.15
70323;BME280;57735;56.264;43.898;2023-03-19T10:49:02;101939.72;;;2.75;44.24
70323;BME280;57735;56.264;43.898;2023-03-19T10:51:35;101938.63;;;2.80;45.09
70323;BME280;57735;56.264;43.898;2023-03-19T10:54:24;101932.94;;;2.90;44.62
70323;BME280;57735;56.264;43.898;2023-03-19T10:56:56;101928.94;;;3.01;44.82
70323;BME280;57735;56.264;43.898;2023-03-19T10:59:31;101924.50;;;3.02;43.98
70323;BME280;57735;56.264;43.898;2023-03-19T11:02:15;101933.06;;;3.07;44.02
70323;BME280;57735;56.264;43.898;2023-03-19T11:04:46;101923.97;;;3.14;44.37
70323;BME280;57735;56.264;43.898;2023-03-19T11:07:31;101920.97;;;3.22;44.42
70323;BME280;57735;56.264;43.898;2023-03-19T11:10:02;101915.44;;;3.28;44.28
70323;BME280;57735;56.264;43.898;2023-03-19T11:12:34;101907.81;;;3.40;44.26
70323;BME280;57735;56.264;43.898;2023-03-19T11:15:18;101898.22;;;3.39;43.61
70323;BME280;57735;56.264;43.898;2023-03-19T11:17:57;101894.78;;;3.37;43.91
70323;BME280;57735;56.264;43.898;2023-03-19T11:20:32;101898.28;;;3.38;44.11
70323;BME280;57735;56.264;43.898;2023-03-19T11:23:14;101899.84;;;3.42;44.49
70323;BME280;57735;56.264;43.898;2023-03-19T11:25:46;101893.94;;;3.37;43.89
70323;BME280;57735;56.264;43.898;2023-03-19T11:28:20;101896.63;;;3.35;44.36
70323;BME280;57735;56.264;43.898;2023-03-19T11:36:42;101886.25;;;3.51;44.38
70323;BME280;57735;56.264;43.898;2023-03-19T11:42:24;101878.69;;;3.62;43.92
70323;BME280;57735;56.264;43.898;2023-03-19T11:47:41;101868.97;;;3.81;43.45
70323;BME280;57735;56.264;43.898;2023-03-19T11:50:18;101867.47;;;3.76;42.97
70323;BME280;57735;56.264;43.898;2023-03-19T12:00:42;101856.09;;;3.38;44.55
70323;BME280;57735;56.264;43.898;2023-03-19T12:06:17;101839.28;;;3.22;45.11
70323;BME280;57735;56.264;43.898;2023-03-19T12:11:41;101825.78;;;3.29;44.39
70323;BME280;57735;56.264;43.898;2023-03-19T12:17:09;101819.09;;;3.77;44.63
70323;BME280;57735;56.264;43.898;2023-03-19T12:20:08;101802.34;;;3.95;44.17
70323;BME280;57735;56.264;43.898;2023-03-19T12:28:12;101792.75;;;4.29;43.25
70323;BME280;57735;56.264;43.898;2023-03-19T12:30:48;101788.53;;;4.25;43.22
70323;BME280;57735;56.264;43.898;2023-03-19T12:33:40;101791.75;;;4.14;43.35
70323;BME280;57735;56.264;43.898;2023-03-19T12:36:16;101789.88;;;4.16;43.80
70323;BME280;57735;56.264;43.898;2023-03-19T12:38:52;101785.97;;;4.23;43.73
70323;BME280;57735;56.264;43.898;2023-03-19T12:41:24;101777.91;;;4.26;43.15
70323;BME280;57735;56.264;43.898;2023-03-19T12:44:09;101788.84;;;4.36;43.83
70323;BME280;57735;56.264;43.898;2023-03-19T12:46:47;101784.72;;;4.47;43.73
70323;BME280;57735;56.264;43.898;2023-03-19T12:52:11;101781.13;;;4.66;43.38
70323;BME280;57735;56.264;43.898;2023-03-19T12:54:44;101787.91;;;4.70;43.46
70323;BME280;57735;56.264;43.898;2023-03-19T12:57:31;101782.22;;;4.62;42.85
70323;BME280;57735;56.264;43.898;2023-03-19T13:05:31;101766.00;;;4.52;43.67
70323;BME280;57735;56.264;43.898;2023-03-19T13:08:13;101769.19;;;4.41;43.09
70323;BME280;57735;56.264;43.898;2023-03-19T13:10:46;101764.47;;;4.31;43.08
70323;BME280;57735;56.264;43.898;2023-03-19T13:13:35;101758.66;;;4.24;43.04
70323;BME280;57735;56.264;43.898;2023-03-19T13:16:29;101754.88;;;4.12;43.47
70323;BME280;57735;56.264;43.898;2023-03-19T13:19:20;101758.50;;;4.10;43.71
70323;BME280;57735;56.264;43.898;2023-03-19T13:21:55;101747.97;;;4.10;44.20
70323;BME280;57735;56.264;43.898;2023-03-19T13:24:28;101741.06;;;4.07;43.94
70323;BME280;57735;56.264;43.898;2023-03-19T13:27:01;101730.13;;;3.98;44.59
70323;BME280;57735;56.264;43.898;2023-03-19T13:29:35;101726.09;;;3.91;44.62
70323;BME280;57735;56.264;43.898;2023-03-19T13:32:20;101727.63;;;3.95;44.85
70323;BME280;57735;56.264;43.898;2023-03-19T13:35:07;101718.56;;;4.00;44.82
70323;BME280;57735;56.264;43.898;2023-03-19T13:37:40;101715.06;;;4.00;45.05
70323;BME280;57735;56.264;43.898;2023-03-19T13:43:00;101700.34;;;3.78;44.94
70323;BME280;57735;56.264;43.898;2023-03-19T13:45:34;101694.66;;;3.69;45.03
70323;BME280;57735;56.264;43.898;2023-03-19T13:48:33;101699.56;;;3.59;45.04
70323;BME280;57735;56.264;43.898;2023-03-19T13:51:22;101684.22;;;3.50;45.49
70323;BME280;57735;56.264;43.898;2023-03-19T13:59:28;101683.34;;;3.32;46.44
70323;BME280;57735;56.264;43.898;2023-03-19T14:01:59;101685.25;;;3.29;46.34
70323;BME280;57735;56.264;43.898;2023-03-19T14:04:30;101684.84;;;3.19;46.26
70323;BME280;57735;56.264;43.898;2023-03-19T14:20:26;101659.19;;;2.87;47.10
70323;BME280;57735;56.264;43.898;2023-03-19T14:28:31;101666.19;;;2.69;47.78
70323;BME280;57735;56.264;43.898;2023-03-19T14:31:04;101657.72;;;2.62;48.26
70323;BME280;57735;56.264;43.898;2023-03-19T14:33:45;101665.75;;;2.59;48.34
70323;BME280;57735;56.264;43.898;2023-03-19T14:36:19;101661.50;;;2.57;48.41
70323;BME280;57735;56.264;43.898;2023-03-19T14:38:54;101659.00;;;2.54;48.90
70323;BME280;57735;56.264;43.898;2023-03-19T14:41:27;101652.88;;;2.53;48.86
70323;BME280;57735;56.264;43.898;2023-03-19T14:46:47;101656.66;;;2.48;48.48
70323;BME280;57735;56.264;43.898;2023-03-19T14:54:47;101638.78;;;2.35;49.39